メインページ
METAR-TAF:

METAR-TAF

空港 :

サンフランシスコ国際空港

サンフランシスコ, カリフォルニア州, アメリカ合衆国

緯度: 37-37-11N, 経度: 122-21-53W, 海抜: 3m

現時点の気象観測

当レポートは46分前の08:56(UTC)に作成
西の風 20kt、最大26ktの突風を伴う
気温 13°C
湿度 72%
気圧 1015 hPa
視程: 16.1km
高度1600ftの曇り

METAR: KSFO 200856Z 27020G26KT 10SM OVC016 13/08 A2996 RMK AO2 PK WND 27026/0848 SLP146 T01330078 58004

時間: 02:42 (09:42 UTC)

予報

当レポートは39分前の09:03(UTC)に作成
予報は20日の 09時(UTC)から 21日の 12時(UTC)まで有効
西の風 16kt、最大23ktの突風を伴う
視程: 10km
高度1400ftの曇り
20日の 2000時(UTC)から
西の風 19kt、最大26ktの突風を伴う
視程: 10km
高度2000ftの雲は散在している
高度25000ftの千切れ雲あり
21日の 03時(UTC)から 21日の 05時(UTC)まで一時的に
高度1500ftの千切れ雲あり
高度25000ftの曇り
21日の 0500時(UTC)から
西の風 12kt、最大20ktの突風を伴う
視程: 10km
高度1500ftの曇り

TAF: KSFO 200903Z 2009/2112 27016G23KT P6SM OVC014 FM202000 27019G26KT P6SM SCT020 BKN250 TEMPO 2103/2105 BKN015 OVC250 FM210500 26012G20KT P6SM OVC015

4,000以上の空港の気象観測と天気予報(METAR報とTAF報)

利用可能な観測所は地図上に黄色い丸と赤い丸で示す。

丸の上にカーソルを重ねると観測所名を参照できる。

次にクリックすると気象観測と天気予報を参照できる。

マップの切り替え:黒色「×」印の緑ボタンをクリックして拡大、「-」印の緑ボタンをクリックして縮小、緑色の三角印をクリックして隣りの地図に切り替え


METAR-TAF: